Time;durP1;ratioP1;P1;durP2;ratioP2;P2;SDS_P1;SDS_P2;PMS_P1;PMS_P2;Temp;Humidity;BMP_temperature;BMP_pressure;BME280_temperature;BME280_humidity;BME280_pressure;Samples;Min_cycle;Max_cycle;Signal;HPM_P1;HPM_P2
2022/11/16 00:01:47;;;;;;;26.10;15.30;;;;;;;10.53;100.00;98125.94;5133652;27;20495;-94
2022/11/16 00:04:13;;;;;;;27.08;16.17;;;;;;;10.56;100.00;98138.25;5134966;27;20591;-93
2022/11/16 00:06:39;;;;;;;26.75;16.27;;;;;;;10.39;100.00;98121.13;5136815;27;20654;-94
2022/11/16 00:12:09;;;;;;;33.25;17.20;;;;;;;10.52;100.00;98113.59;5144252;27;20377;-92
2022/11/16 00:14:35;;;;;;;30.05;16.60;;;;;;;10.48;100.00;98093.34;5127802;27;20039;-93
2022/11/16 00:17:02;;;;;;;27.90;17.05;;;;;;;10.55;100.00;98105.47;5131627;27;20039;-95
2022/11/16 00:19:28;;;;;;;31.25;17.88;;;;;;;10.58;100.00;98124.00;5129362;27;20060;-95
2022/11/16 00:21:54;;;;;;;30.95;17.77;;;;;;;10.52;100.00;98116.25;5122853;28;20047;-93
2022/11/16 00:24:22;;;;;;;26.63;16.13;;;;;;;10.61;100.00;98096.41;5125892;27;20038;-93
2022/11/16 00:26:48;;;;;;;29.27;18.17;;;;;;;10.57;100.00;98100.97;5126618;27;20043;-91
2022/11/16 00:29:18;;;;;;;29.13;17.23;;;;;;;10.58;100.00;98088.53;5124473;27;20083;-93
2022/11/16 00:31:44;;;;;;;30.80;18.27;;;;;;;10.55;100.00;98094.84;5128300;27;20130;-93
2022/11/16 00:34:11;;;;;;;33.35;17.83;;;;;;;10.51;100.00;98090.56;5129768;27;20048;-91
2022/11/16 00:36:37;;;;;;;29.60;18.10;;;;;;;10.47;100.00;98088.94;5124875;27;20463;-94
2022/11/16 00:39:03;;;;;;;31.60;18.33;;;;;;;10.48;100.00;98077.41;5126258;27;20063;-94
2022/11/16 00:41:29;;;;;;;35.05;19.67;;;;;;;10.57;100.00;98087.69;5127916;27;20373;-93
2022/11/16 00:43:55;;;;;;;30.13;17.88;;;;;;;10.59;100.00;98092.94;5128512;27;20039;-94
2022/11/16 00:46:22;;;;;;;31.50;17.45;;;;;;;10.48;100.00;98066.78;5121844;27;20068;-94
2022/11/16 00:48:48;;;;;;;29.40;16.65;;;;;;;10.51;100.00;98068.44;5126638;27;20041;-94
2022/11/16 00:51:14;;;;;;;30.38;17.27;;;;;;;10.55;100.00;98075.38;5123187;27;20031;-94
2022/11/16 00:53:39;;;;;;;30.27;17.27;;;;;;;10.52;100.00;98052.44;5131708;27;20035;-93
2022/11/16 00:56:06;;;;;;;25.38;16.60;;;;;;;10.62;100.00;98059.13;5127001;27;20057;-93
2022/11/16 00:58:32;;;;;;;26.65;16.33;;;;;;;10.73;100.00;98066.66;5131478;27;20043;-93
2022/11/16 01:01:03;;;;;;;23.83;15.82;;;;;;;10.83;100.00;98056.56;5125025;27;20092;-95
2022/11/16 01:03:30;;;;;;;37.22;16.52;;;;;;;10.83;100.00;98061.88;5124654;27;20040;-94
2022/11/16 01:06:00;;;;;;;27.40;14.75;;;;;;;10.70;100.00;98040.22;5128179;27;20050;-92
2022/11/16 01:08:26;;;;;;;30.42;16.98;;;;;;;10.65;100.00;98035.09;5127905;27;20057;-93
2022/11/16 01:10:53;;;;;;;24.35;15.85;;;;;;;10.69;100.00;98042.00;5128597;27;20496;-95
2022/11/16 01:13:19;;;;;;;25.70;15.50;;;;;;;10.88;100.00;98052.78;5127068;27;20039;-93
2022/11/16 01:15:46;;;;;;;25.48;15.60;;;;;;;10.82;100.00;98044.16;5121784;27;20060;-93
2022/11/16 01:18:12;;;;;;;22.95;14.20;;;;;;;10.83;100.00;98051.25;5126957;27;20082;-96
2022/11/16 01:20:40;;;;;;;25.25;14.57;;;;;;;10.84;100.00;98052.97;5124431;27;20059;-94
2022/11/16 01:23:06;;;;;;;24.35;14.90;;;;;;;10.81;100.00;98053.09;5116535;27;20035;-93
2022/11/16 01:25:32;;;;;;;26.35;15.10;;;;;;;10.87;100.00;98048.41;5113859;27;20088;-91
2022/11/16 01:27:57;;;;;;;23.15;13.95;;;;;;;10.90;100.00;98026.97;5114214;27;20043;-92
2022/11/16 01:30:23;;;;;;;26.50;14.75;;;;;;;10.93;100.00;98025.13;5110013;28;20122;-95
2022/11/16 01:32:49;;;;;;;27.00;14.70;;;;;;;10.89;100.00;98025.25;5108812;27;20093;-94
2022/11/16 01:35:17;;;;;;;23.48;14.13;;;;;;;10.93;100.00;98019.81;5113516;27;20492;-92
2022/11/16 01:37:44;;;;;;;21.30;13.30;;;;;;;10.97;100.00;98005.44;5111597;27;20073;-94
2022/11/16 01:40:12;;;;;;;22.63;13.32;;;;;;;11.10;100.00;98006.69;5110607;27;20040;-94
2022/11/16 01:42:37;;;;;;;20.92;13.32;;;;;;;11.12;100.00;97991.50;5111854;28;20063;-94
2022/11/16 01:45:18;;;;;;;23.58;13.38;;;;;;;11.13;100.00;97995.06;5115356;27;20059;-92
2022/11/16 01:47:44;;;;;;;18.30;12.38;;;;;;;11.07;100.00;97998.84;5110589;27;20043;-96
2022/11/16 01:50:14;;;;;;;23.90;12.98;;;;;;;11.08;100.00;97997.88;5111427;27;20067;-93
2022/11/16 01:52:46;;;;;;;25.33;13.73;;;;;;;11.13;100.00;97993.25;5109777;27;20054;-93
2022/11/16 01:55:12;;;;;;;22.58;13.20;;;;;;;11.11;100.00;97995.13;5111708;28;20046;-92
2022/11/16 01:57:42;;;;;;;20.48;11.98;;;;;;;11.05;100.00;97976.75;5109489;27;20039;-93
2022/11/16 02:00:11;;;;;;;18.77;12.48;;;;;;;11.10;100.00;97980.97;5111290;27;20053;-95
2022/11/16 02:02:36;;;;;;;19.80;11.68;;;;;;;10.96;100.00;97956.72;5110841;27;20104;-94
2022/11/16 02:05:03;;;;;;;21.20;12.27;;;;;;;11.07;100.00;97977.56;5115772;27;20035;-94
2022/11/16 02:10:58;;;;;;;22.13;12.27;;;;;;;11.13;100.00;97965.78;5052114;27;20377;-94
2022/11/16 02:13:38;;;;;;;17.88;12.07;;;;;;;11.03;100.00;97952.00;5049345;28;20041;-93
2022/11/16 02:16:17;;;;;;;19.63;11.15;;;;;;;11.15;100.00;97948.81;5049417;28;20565;-93
2022/11/16 02:18:55;;;;;;;18.45;11.15;;;;;;;11.01;100.00;97924.59;5049415;28;20372;-93
2022/11/16 02:21:33;;;;;;;20.80;11.93;;;;;;;11.20;100.00;97937.97;5049009;28;20037;-94
2022/11/16 02:24:16;;;;;;;19.33;12.02;;;;;;;11.07;100.00;97930.50;5050509;28;20045;-92
2022/11/16 02:27:11;;;;;;;19.85;11.98;;;;;;;11.06;100.00;97923.47;5046417;28;20037;-93
2022/11/16 02:29:41;;;;;;;21.55;12.07;;;;;;;10.96;100.00;97900.00;5044611;28;20410;-95
2022/11/16 02:32:15;;;;;;;19.27;11.15;;;;;;;11.01;100.00;97911.28;5048642;28;20091;-94
2022/11/16 02:34:46;;;;;;;18.33;10.90;;;;;;;11.06;100.00;97917.28;5048735;28;20092;-92
2022/11/16 02:37:16;;;;;;;18.90;10.50;;;;;;;11.22;100.00;97917.50;5048949;28;20049;-93
2022/11/16 02:39:45;;;;;;;21.02;11.15;;;;;;;11.11;100.00;97902.00;5048994;28;20041;-94
2022/11/16 02:42:16;;;;;;;20.42;11.15;;;;;;;11.14;100.00;97909.81;5050362;28;20037;-94
2022/11/16 02:44:48;;;;;;;19.67;10.07;;;;;;;11.12;100.00;97894.88;5044954;28;20049;-93
2022/11/16 02:50:20;;;;;;;18.13;10.88;;;;;;;11.10;100.00;97895.81;5131091;27;20378;-93
2022/11/16 02:52:46;;;;;;;;;;;;;;;11.24;100.00;97905.84;5117357;28;20530;-94
2022/11/16 02:55:12;;;;;;;15.90;9.32;;;;;;;11.17;100.00;97892.84;5119125;28;19923;-93
2022/11/16 02:57:43;;;;;;;16.45;9.73;;;;;;;11.12;100.00;97890.41;5122824;28;20504;-94
2022/11/16 03:00:15;;;;;;;17.38;10.40;;;;;;;11.16;100.00;97892.00;5114327;28;20071;-93
2022/11/16 03:02:48;;;;;;;21.27;11.85;;;;;;;11.16;100.00;97869.84;5119822;28;20035;-93
2022/11/16 03:05:17;;;;;;;16.27;10.27;;;;;;;11.20;100.00;97882.97;5119821;27;20044;-93
2022/11/16 03:07:45;;;;;;;;;;;;;;;11.26;100.00;97888.00;5120558;28;20046;-93
2022/11/16 03:11:58;;;;;;;18.55;10.45;;;;;;;11.13;100.00;97857.56;5119666;27;19926;-93
2022/11/16 03:13:01;;;;;;;13.65;8.98;;;;;;;11.17;100.00;97861.81;5107995;28;20043;-95
2022/11/16 03:15:28;;;;;;;16.23;9.38;;;;;;;11.25;100.00;97862.31;5118174;28;20039;-92
2022/11/16 03:17:56;;;;;;;14.75;8.93;;;;;;;11.17;100.00;97845.84;5120860;28;20043;-92
2022/11/16 03:20:26;;;;;;;13.95;9.07;;;;;;;11.24;100.00;97851.75;5120604;27;20092;-94
2022/11/16 03:22:57;;;;;;;15.05;8.60;;;;;;;11.25;100.00;97848.16;5115439;28;20123;-93
2022/11/16 03:25:28;;;;;;;14.20;8.55;;;;;;;11.40;100.00;97849.28;5117914;28;20043;-93
2022/11/16 03:28:01;;;;;;;15.75;8.73;;;;;;;11.43;100.00;97843.81;5116977;28;20438;-94
2022/11/16 03:30:31;;;;;;;12.32;7.95;;;;;;;11.33;100.00;97829.19;5117095;28;20516;-93
2022/11/16 03:33:05;;;;;;;12.90;7.82;;;;;;;11.44;100.00;97838.41;5119711;28;20404;-95
2022/11/16 03:35:36;;;;;;;12.48;7.65;;;;;;;11.50;100.00;97831.94;5120130;28;20039;-93
2022/11/16 03:38:05;;;;;;;13.45;7.65;;;;;;;11.42;100.00;97828.78;5117875;28;20763;-93
2022/11/16 03:40:34;;;;;;;13.93;7.53;;;;;;;11.54;100.00;97835.31;5117334;28;20152;-92
2022/11/16 03:43:00;;;;;;;;;;;;;;;11.51;100.00;97833.66;5122399;28;20058;-94
2022/11/16 03:45:27;;;;;;;10.90;6.75;;;;;;;11.48;100.00;97828.50;5120853;28;19919;-96
2022/11/16 03:47:53;;;;;;;14.02;7.53;;;;;;;11.47;100.00;97818.75;5114337;28;20082;-93
2022/11/16 03:50:19;;;;;;;11.43;7.00;;;;;;;11.39;100.00;97810.28;5119484;28;20130;-93
2022/11/16 03:52:45;;;;;;;14.25;7.13;;;;;;;11.48;100.00;97831.16;5122514;28;20043;-92
2022/11/16 03:55:12;;;;;;;12.35;6.85;;;;;;;11.29;100.00;97799.19;5123304;28;20036;-94
2022/11/16 03:57:38;;;;;;;13.73;6.90;;;;;;;11.55;100.00;97832.59;5122128;28;20042;-93
2022/11/16 04:00:05;;;;;;;12.02;6.95;;;;;;;11.61;100.00;97836.78;5110429;28;20037;-94
2022/11/16 04:02:31;;;;;;;11.65;6.63;;;;;;;11.48;100.00;97815.19;5105003;28;20516;-95
2022/11/16 04:26:10;;;;;;;11.68;7.05;;;;;;;11.48;100.00;97812.53;5153047;27;20371;-95
2022/11/16 04:28:37;;;;;;;11.85;6.35;;;;;;;11.45;100.00;97797.56;5134273;27;20424;-95
2022/11/16 04:40:05;;;;;;;11.15;6.80;;;;;;;11.47;100.00;97797.47;5112235;27;20392;-95
2022/11/16 04:42:31;;;;;;;11.30;6.93;;;;;;;11.55;100.00;97807.78;5110079;28;20113;-94
2022/11/16 04:47:56;;;;;;;10.77;6.65;;;;;;;11.58;100.00;97802.28;5091702;27;20373;-96
2022/11/16 04:50:22;;;;;;;18.83;7.20;;;;;;;11.47;100.00;97784.16;5090966;28;20079;-95
2022/11/16 04:52:48;;;;;;;12.07;8.40;;;;;;;11.55;100.00;97786.47;5090598;28;20067;-95
2022/11/16 04:55:14;;;;;;;10.88;6.55;;;;;;;11.66;100.00;97782.34;5087554;28;20098;-93
2022/11/16 04:57:40;;;;;;;9.50;6.60;;;;;;;11.54;100.00;97772.31;5090549;28;20582;-94
2022/11/16 05:00:07;;;;;;;9.57;6.68;;;;;;;11.57;100.00;97772.16;5089377;28;20047;-93
2022/11/16 05:02:33;;;;;;;10.55;7.00;;;;;;;11.69;100.00;97789.38;5089986;28;20048;-93
2022/11/16 05:05:00;;;;;;;12.18;6.47;;;;;;;11.70;100.00;97793.75;5090550;28;20040;-94
2022/11/16 05:07:26;;;;;;;11.52;6.68;;;;;;;11.64;100.00;97786.88;5090119;28;20045;-95
2022/11/16 05:09:52;;;;;;;11.70;7.20;;;;;;;11.70;100.00;97777.75;5085821;28;20045;-95
2022/11/16 05:12:20;;;;;;;11.05;6.22;;;;;;;11.72;100.00;97778.56;5090284;28;20492;-95
2022/11/16 05:14:46;;;;;;;11.95;6.60;;;;;;;11.70;100.00;97775.94;5090406;28;20135;-94
2022/11/16 05:17:12;;;;;;;12.60;7.07;;;;;;;11.74;100.00;97791.81;5089775;28;20457;-92
2022/11/16 05:22:39;;;;;;;11.00;6.40;;;;;;;11.70;100.00;97780.44;5092242;27;20374;-94
2022/11/16 05:25:07;;;;;;;10.80;7.30;;;;;;;11.58;100.00;97757.03;5091689;28;20044;-95
2022/11/16 05:27:33;;;;;;;10.50;6.67;;;;;;;11.59;100.00;97750.78;5091894;28;20044;-93
2022/11/16 05:29:59;;;;;;;12.68;7.10;;;;;;;11.62;100.00;97754.13;5090546;28;20086;-94
2022/11/16 05:32:26;;;;;;;10.20;6.20;;;;;;;11.63;100.00;97752.38;5089366;28;20066;-93
2022/11/16 05:34:52;;;;;;;12.55;6.43;;;;;;;11.63;100.00;97750.56;5090415;28;20036;-94
2022/11/16 05:37:19;;;;;;;10.77;6.57;;;;;;;11.69;100.00;97752.09;5089567;28;20044;-95
2022/11/16 05:39:47;;;;;;;12.27;6.88;;;;;;;11.69;100.00;97750.28;5090071;28;20040;-93
2022/11/16 05:42:13;;;;;;;11.30;6.93;;;;;;;11.62;100.00;97751.47;5086853;28;20041;-94
2022/11/16 05:44:39;;;;;;;10.93;7.03;;;;;;;11.65;100.00;97745.16;5090319;28;20051;-93
2022/11/16 05:47:04;;;;;;;12.15;6.90;;;;;;;11.67;100.00;97746.81;5088832;28;20505;-93
2022/11/16 05:49:30;;;;;;;11.75;6.45;;;;;;;11.67;100.00;97752.16;5090097;28;20036;-95
2022/11/16 05:51:56;;;;;;;12.35;7.20;;;;;;;11.60;100.00;97729.41;5089449;28;20388;-95
2022/11/16 05:54:24;;;;;;;11.98;7.03;;;;;;;11.71;100.00;97745.75;5089121;28;20044;-96
2022/11/16 05:56:52;;;;;;;11.05;6.85;;;;;;;11.73;100.00;97740.31;5089745;28;20044;-95
2022/11/16 05:59:20;;;;;;;11.77;6.63;;;;;;;11.74;100.00;97747.38;5089864;28;20139;-93
2022/11/16 06:01:46;;;;;;;12.02;7.03;;;;;;;11.70;100.00;97737.81;5089022;28;20115;-93
2022/11/16 06:04:13;;;;;;;12.07;7.40;;;;;;;11.69;100.00;97730.78;5089627;28;20066;-95
2022/11/16 06:06:39;;;;;;;13.18;6.72;;;;;;;11.79;100.00;97747.16;5084102;28;20040;-95
2022/11/16 06:09:06;;;;;;;11.93;6.60;;;;;;;11.73;100.00;97719.00;5090083;28;20056;-95
2022/11/16 06:11:33;;;;;;;10.25;6.55;;;;;;;11.75;100.00;97724.28;5094120;28;20047;-93
2022/11/16 06:14:00;;;;;;;12.77;6.75;;;;;;;11.71;100.00;97702.28;5090073;28;20044;-95
2022/11/16 06:16:26;;;;;;;12.25;6.20;;;;;;;11.96;100.00;97723.25;5089261;28;20044;-93
2022/11/16 06:18:52;;;;;;;12.68;7.03;;;;;;;11.88;100.00;97721.00;5089300;28;20044;-94
2022/11/16 06:21:18;;;;;;;9.02;6.40;;;;;;;11.97;100.00;97738.31;5088232;28;20135;-95
2022/11/16 06:23:45;;;;;;;13.90;7.00;;;;;;;11.97;100.00;97740.97;5089428;28;20044;-94
2022/11/16 06:26:11;;;;;;;13.77;6.97;;;;;;;11.97;100.00;97740.97;5089066;28;20052;-94
2022/11/16 06:28:38;;;;;;;14.68;7.30;;;;;;;12.02;100.00;97751.41;5090124;28;20044;-94
2022/11/16 06:31:05;;;;;;;12.60;7.47;;;;;;;12.03;100.00;97743.31;5088503;28;20044;-94
2022/11/16 06:33:31;;;;;;;11.02;6.72;;;;;;;12.04;100.00;97744.22;5078348;28;20037;-95
2022/11/16 06:35:57;;;;;;;17.20;7.90;;;;;;;12.14;100.00;97748.13;5077234;28;20087;-94
2022/11/16 06:38:23;;;;;;;10.02;6.80;;;;;;;11.98;100.00;97720.53;5077638;28;20045;-96
2022/11/16 06:40:50;;;;;;;14.45;7.22;;;;;;;12.08;100.00;97743.13;5077869;28;20052;-93
2022/11/16 06:43:17;;;;;;;11.82;6.45;;;;;;;11.95;100.00;97716.22;5078325;28;20052;-96
2022/11/16 06:45:43;;;;;;;11.30;6.60;;;;;;;12.03;100.00;97730.00;5076890;28;20044;-95
2022/11/16 06:48:10;;;;;;;13.35;7.40;;;;;;;12.07;100.00;97734.25;5077090;28;20036;-95
2022/11/16 06:50:36;;;;;;;13.00;7.20;;;;;;;12.02;100.00;97716.78;5076665;28;20052;-96
2022/11/16 06:53:02;;;;;;;13.93;7.30;;;;;;;12.09;100.00;97727.03;5075897;28;20055;-95
2022/11/16 06:55:28;;;;;;;13.68;6.93;;;;;;;12.12;100.00;97718.00;5077355;28;20049;-95
2022/11/16 06:57:54;;;;;;;12.90;7.32;;;;;;;12.23;100.00;97730.81;5080217;28;20048;-93
2022/11/16 07:00:20;;;;;;;10.25;6.32;;;;;;;12.10;100.00;97722.56;5078929;28;20040;-95
2022/11/16 07:02:46;;;;;;;12.20;7.25;;;;;;;12.16;100.00;97729.41;5079335;28;20049;-96
2022/11/16 07:05:14;;;;;;;13.73;6.80;;;;;;;12.24;100.00;97732.53;5080572;28;20044;-93
2022/11/16 07:07:39;;;;;;;14.50;7.10;;;;;;;12.17;100.00;97721.34;5078080;28;20044;-93
2022/11/16 07:10:06;;;;;;;11.40;6.65;;;;;;;12.28;100.00;97723.47;5113340;28;20519;-95
2022/11/16 07:12:32;;;;;;;11.02;6.88;;;;;;;12.36;100.00;97729.25;5079330;28;20057;-93
2022/11/16 07:14:58;;;;;;;10.38;6.72;;;;;;;12.40;100.00;97741.47;5078185;28;20036;-94
2022/11/16 07:17:24;;;;;;;12.25;7.10;;;;;;;12.42;100.00;97731.59;5077383;28;20056;-93
2022/11/16 07:19:50;;;;;;;15.93;7.70;;;;;;;12.29;100.00;97712.69;5078191;28;20066;-95
2022/11/16 07:22:17;;;;;;;15.73;10.65;;;;;;;12.44;100.00;97734.19;5077557;28;20047;-95
2022/11/16 07:24:43;;;;;;;12.93;7.90;;;;;;;12.34;100.00;97712.50;5077246;28;20052;-94
2022/11/16 07:27:09;;;;;;;17.05;8.98;;;;;;;12.37;100.00;97717.66;5076355;28;20071;-96
2022/11/16 07:29:34;;;;;;;14.68;9.23;;;;;;;12.41;100.00;97721.03;5075274;28;20398;-94
2022/11/16 07:32:00;;;;;;;17.63;9.50;;;;;;;12.41;100.00;97718.38;5076042;28;20075;-94
2022/11/16 07:34:26;;;;;;;15.98;9.27;;;;;;;12.40;100.00;97705.97;5076173;28;20055;-95
2022/11/16 07:36:52;;;;;;;16.70;9.57;;;;;;;12.38;100.00;97706.03;5076142;28;20043;-95
2022/11/16 07:39:20;;;;;;;16.25;9.10;;;;;;;12.44;100.00;97705.72;5076027;28;20135;-94
2022/11/16 07:41:46;;;;;;;20.57;10.67;;;;;;;12.44;100.00;97697.72;5075860;28;20090;-95
2022/11/16 07:44:12;;;;;;;26.90;14.07;;;;;;;12.46;100.00;97689.66;5074111;28;20270;-94
2022/11/16 07:46:38;;;;;;;25.85;14.35;;;;;;;12.62;100.00;97703.91;5074540;28;20436;-94
2022/11/16 07:49:04;;;;;;;23.65;13.68;;;;;;;12.67;100.00;97703.69;5074742;28;20055;-94
2022/11/16 07:51:31;;;;;;;27.38;14.05;;;;;;;12.71;100.00;97691.91;5074616;28;20044;-96
2022/11/16 07:53:57;;;;;;;26.98;13.82;;;;;;;12.67;100.00;97688.53;5074761;28;20456;-95
2022/11/16 07:56:24;;;;;;;24.33;12.93;;;;;;;12.72;100.00;97690.94;5074219;28;20045;-95
2022/11/16 07:58:50;;;;;;;18.48;9.75;;;;;;;12.80;100.00;97696.75;5074076;28;20094;-95
2022/11/16 08:01:17;;;;;;;20.55;8.65;;;;;;;12.77;100.00;97694.22;5073650;28;20037;-94
2022/11/16 08:03:45;;;;;;;14.73;7.50;;;;;;;12.81;100.00;97689.59;5076704;28;20039;-94
2022/11/16 08:06:13;;;;;;;14.85;7.20;;;;;;;12.79;100.00;97670.13;5075300;28;20036;-94
2022/11/16 08:08:39;;;;;;;16.92;8.23;;;;;;;12.93;100.00;97681.78;5074906;28;20494;-95
2022/11/16 08:11:07;;;;;;;22.55;8.25;;;;;;;12.94;100.00;97685.31;5073703;28;20086;-95
2022/11/16 08:13:36;;;;;;;14.70;8.48;;;;;;;12.84;100.00;97663.63;5077733;28;20060;-94
2022/11/16 08:16:04;;;;;;;15.88;8.20;;;;;;;12.88;100.00;97661.63;5069007;28;20064;-93
2022/11/16 08:18:30;;;;;;;20.05;10.07;;;;;;;12.94;100.00;97671.97;5074574;28;20036;-93
2022/11/16 08:20:58;;;;;;;15.60;8.93;;;;;;;12.91;100.00;97681.00;5073384;28;20052;-94
2022/11/16 08:23:24;;;;;;;13.23;8.48;;;;;;;12.84;100.00;97666.28;5073386;28;20592;-94
2022/11/16 08:25:50;;;;;;;17.20;8.75;;;;;;;12.75;100.00;97648.09;5073740;28;20123;-95
2022/11/16 08:28:16;;;;;;;13.95;8.27;;;;;;;12.84;100.00;97668.09;5073856;28;20071;-95
2022/11/16 08:30:43;;;;;;;17.50;8.65;;;;;;;12.78;100.00;97658.63;5072987;28;20040;-93
2022/11/16 08:33:10;;;;;;;13.80;8.82;;;;;;;12.85;100.00;97675.16;5071166;28;20135;-93
2022/11/16 08:35:35;;;;;;;16.90;10.43;;;;;;;12.87;100.00;97666.13;5074171;28;20045;-94
2022/11/16 08:38:01;;;;;;;16.70;10.15;;;;;;;12.81;100.00;97647.75;5070770;28;20524;-96
2022/11/16 08:40:27;;;;;;;19.60;10.30;;;;;;;12.89;100.00;97668.72;5074565;28;20102;-95
2022/11/16 08:42:56;;;;;;;15.85;10.05;;;;;;;12.88;100.00;97673.19;5071172;28;20055;-95
2022/11/16 08:45:22;;;;;;;14.88;9.82;;;;;;;12.90;100.00;97665.06;5070715;28;20402;-93
2022/11/16 08:47:51;;;;;;;18.85;10.02;;;;;;;12.87;100.00;97674.13;5073156;28;20036;-93
2022/11/16 08:50:17;;;;;;;22.02;11.48;;;;;;;12.89;100.00;97672.22;5073153;28;20075;-93
2022/11/16 08:52:43;;;;;;;20.35;11.32;;;;;;;13.02;100.00;97690.25;5073478;28;20063;-95
2022/11/16 08:55:10;;;;;;;20.10;11.23;;;;;;;12.95;100.00;97669.25;5073522;28;20036;-95
2022/11/16 08:57:36;;;;;;;19.17;11.73;;;;;;;12.97;100.00;97670.94;5073031;28;20047;-92
2022/11/16 09:00:03;;;;;;;17.85;10.85;;;;;;;12.98;100.00;97670.00;5072494;28;20033;-91
2022/11/16 09:02:29;;;;;;;21.35;11.63;;;;;;;12.95;100.00;97673.72;5073247;28;20494;-94
2022/11/16 09:04:56;;;;;;;21.50;11.70;;;;;;;12.98;100.00;97673.53;5073142;28;20040;-94
2022/11/16 09:07:22;;;;;;;21.00;11.50;;;;;;;13.01;100.00;97669.84;5073148;28;20467;-93
2022/11/16 09:09:48;;;;;;;21.23;12.30;;;;;;;13.02;100.00;97675.09;5073472;28;20055;-93
2022/11/16 09:12:14;;;;;;;20.80;11.88;;;;;;;13.22;100.00;97694.50;5073464;28;20414;-95
2022/11/16 09:14:40;;;;;;;26.17;12.30;;;;;;;13.12;100.00;97668.31;5073226;28;20047;-94
2022/11/16 09:17:06;;;;;;;23.90;12.38;;;;;;;13.33;100.00;97686.78;5072798;28;20041;-95
2022/11/16 09:19:32;;;;;;;18.17;10.88;;;;;;;13.37;100.00;97672.31;5073425;28;20436;-95
2022/11/16 09:21:59;;;;;;;18.83;11.75;;;;;;;13.46;100.00;97669.13;5073490;28;20509;-96
2022/11/16 09:24:25;;;;;;;24.15;12.57;;;;;;;13.48;100.00;97659.22;5073006;28;20135;-94
2022/11/16 09:26:51;;;;;;;25.02;13.23;;;;;;;13.58;100.00;97659.56;5072916;28;20435;-95
2022/11/16 09:29:16;;;;;;;21.98;12.32;;;;;;;13.59;100.00;97655.09;5073340;28;20075;-94
2022/11/16 09:31:42;;;;;;;23.60;12.23;;;;;;;13.55;100.00;97644.59;5073754;28;20067;-94
2022/11/16 09:34:08;;;;;;;24.27;13.73;;;;;;;13.65;100.00;97671.63;5076158;28;20032;-93
2022/11/16 09:36:34;;;;;;;21.63;12.95;;;;;;;13.60;100.00;97667.47;5074542;28;20059;-96
2022/11/16 09:39:13;;;;;;;27.17;13.30;;;;;;;13.49;100.00;97663.63;5074471;28;20045;-93
2022/11/16 09:41:55;;;;;;;22.02;12.85;;;;;;;13.54;100.00;97668.72;5068203;28;20037;-94
2022/11/16 09:44:38;;;;;;;21.73;12.52;;;;;;;13.56;100.00;97661.47;5068737;28;20045;-95
2022/11/16 09:47:13;;;;;;;19.35;11.18;;;;;;;13.59;100.00;97657.75;5073899;28;20440;-94
2022/11/16 09:49:45;;;;;;;20.35;11.00;;;;;;;13.77;100.00;97668.25;5072877;28;20044;-95
2022/11/16 09:52:23;;;;;;;15.43;9.80;;;;;;;14.09;100.00;97651.28;5074171;28;20039;-95
2022/11/16 09:54:52;;;;;;;15.85;9.10;;;;;;;14.44;100.00;97633.09;5074605;28;20040;-94
2022/11/16 09:57:23;;;;;;;17.27;9.65;;;;;;;14.72;100.00;97634.13;5074860;28;20051;-94
2022/11/16 09:59:56;;;;;;;16.73;8.80;;;;;;;14.92;100.00;97627.53;5075583;28;20072;-95
2022/11/16 10:02:28;;;;;;;14.90;8.63;;;;;;;15.28;100.00;97624.31;5073216;28;20044;-96
2022/11/16 10:05:00;;;;;;;14.00;7.82;;;;;;;15.41;100.00;97625.25;5073910;28;20049;-93
2022/11/16 10:07:32;;;;;;;15.57;7.90;;;;;;;15.60;100.00;97630.25;5075904;28;20048;-94
2022/11/16 10:09:59;;;;;;;10.93;7.65;;;;;;;15.56;100.00;97611.81;5077258;28;20069;-93
2022/11/16 10:12:33;;;;;;;13.18;8.45;;;;;;;15.45;100.00;97614.34;5071577;28;20040;-94
2022/11/16 10:15:14;;;;;;;13.35;8.63;;;;;;;15.02;100.00;97599.22;5076588;28;20040;-93
2022/11/16 10:18:01;;;;;;;12.63;8.35;;;;;;;15.08;100.00;97600.66;5078823;28;20040;-94
2022/11/16 10:20:50;;;;;;;15.50;8.60;;;;;;;15.05;100.00;97571.38;5072296;28;20048;-93
2022/11/16 10:23:27;;;;;;;20.15;10.13;;;;;;;15.18;100.00;97589.25;5072831;28;20062;-95
2022/11/16 10:26:00;;;;;;;17.10;10.00;;;;;;;15.06;100.00;97578.47;5080451;28;20040;-94
2022/11/16 10:28:51;;;;;;;19.08;9.98;;;;;;;14.97;100.00;97567.38;5079058;28;20041;-96
2022/11/16 10:31:24;;;;;;;13.75;9.00;;;;;;;15.12;100.00;97573.59;5070762;28;20041;-96
2022/11/16 10:33:54;;;;;;;13.57;9.68;;;;;;;15.21;100.00;97566.78;5082500;28;20413;-94
2022/11/16 10:36:28;;;;;;;17.00;11.05;;;;;;;15.27;100.00;97565.53;5078813;28;20066;-94
2022/11/16 10:38:56;;;;;;;16.75;11.32;;;;;;;15.35;100.00;97547.09;5073426;28;20041;-94
2022/11/16 10:41:32;;;;;;;19.00;11.25;;;;;;;15.62;100.00;97560.50;5077766;28;20121;-95
2022/11/16 10:43:58;;;;;;;16.77;10.48;;;;;;;15.71;100.00;97541.16;5083522;28;20068;-94
2022/11/16 10:46:30;;;;;;;18.38;9.93;;;;;;;15.82;100.00;97535.06;5082681;28;20064;-95
2022/11/16 10:49:06;;;;;;;18.30;10.70;;;;;;;15.93;100.00;97513.72;5082706;28;20408;-93
2022/11/16 10:51:32;;;;;;;14.52;10.48;;;;;;;16.18;100.00;97526.31;5083302;28;20040;-95
2022/11/16 10:53:58;;;;;;;19.63;10.65;;;;;;;16.21;100.00;97512.66;5083614;28;20036;-94
2022/11/16 10:56:29;;;;;;;15.75;11.70;;;;;;;16.28;100.00;97504.19;5082958;28;20085;-96
2022/11/16 10:58:57;;;;;;;19.35;12.18;;;;;;;16.32;100.00;97511.06;5083677;28;20062;-96
2022/11/16 11:01:35;;;;;;;20.00;12.03;;;;;;;16.12;100.00;97507.09;5083635;28;20036;-96
2022/11/16 11:04:19;;;;;;;17.47;11.00;;;;;;;15.99;100.00;97512.47;5084552;28;20274;-95
2022/11/16 11:06:47;;;;;;;18.35;9.90;;;;;;;15.76;100.00;97489.91;5083314;28;20277;-94
2022/11/16 11:09:19;;;;;;;15.95;10.32;;;;;;;15.72;100.00;97494.63;5082232;28;20075;-94
2022/11/16 11:15:01;;;;;;;14.73;9.70;;;;;;;15.70;100.00;97490.28;5121125;27;20459;-95
2022/11/16 11:17:29;;;;;;;20.80;10.02;;;;;;;15.68;100.00;97473.44;5102951;28;20504;-95
2022/11/16 11:20:00;;;;;;;14.52;9.32;;;;;;;15.85;100.00;97485.75;5104356;28;20150;-95
2022/11/16 11:22:27;;;;;;;14.82;9.95;;;;;;;15.97;100.00;97482.22;5103983;28;20044;-95
2022/11/16 11:24:54;;;;;;;20.20;12.10;;;;;;;15.99;100.00;97478.47;5105475;28;20043;-96
2022/11/16 11:27:25;;;;;;;19.60;12.85;;;;;;;16.05;100.00;97476.28;5104952;28;20113;-96
2022/11/16 11:29:54;;;;;;;21.92;12.38;;;;;;;15.94;100.00;97475.25;5103546;28;20047;-94
2022/11/16 11:32:25;;;;;;;25.53;14.80;;;;;;;15.88;100.00;97456.06;5136386;28;20044;-94
2022/11/16 11:34:53;;;;;;;24.52;13.82;;;;;;;15.78;100.00;97448.63;5100299;28;20135;-96
2022/11/16 11:37:24;;;;;;;22.40;13.38;;;;;;;15.74;100.00;97455.19;5101723;28;20074;-94
2022/11/16 11:40:04;;;;;;;21.40;12.93;;;;;;;15.66;100.00;97460.19;5101205;28;20044;-95
2022/11/16 11:42:30;;;;;;;16.10;10.52;;;;;;;15.48;100.00;97450.72;5100415;28;20048;-94
2022/11/16 11:44:58;;;;;;;19.38;10.80;;;;;;;15.40;100.00;97440.53;5100258;28;20092;-94
2022/11/16 11:47:40;;;;;;;15.38;10.77;;;;;;;15.41;100.00;97458.31;5097537;28;20047;-95
2022/11/16 11:50:15;;;;;;;14.68;9.18;;;;;;;15.64;100.00;97448.72;5081159;28;20067;-94
2022/11/16 11:52:47;;;;;;;16.45;9.38;;;;;;;15.72;100.00;97435.69;5080871;28;20144;-96
2022/11/16 11:55:16;;;;;;;13.90;8.85;;;;;;;15.93;100.00;97433.31;5084838;28;20048;-95
2022/11/16 11:57:48;;;;;;;16.05;9.32;;;;;;;16.11;100.00;97428.50;5084115;28;20076;-94
2022/11/16 12:00:16;;;;;;;13.95;8.45;;;;;;;16.35;100.00;97411.56;5085606;28;20036;-95
2022/11/16 12:03:27;;;;;;;15.83;7.73;;;;;;;16.53;100.00;97426.34;5082376;28;20041;-95
2022/11/16 12:06:10;;;;;;;12.57;7.88;;;;;;;16.50;100.00;97405.09;4995164;28;20193;-94
2022/11/16 12:09:02;;;;;;;15.13;7.93;;;;;;;16.55;100.00;97396.72;5002737;28;20049;-94
2022/11/16 12:11:37;;;;;;;16.13;7.22;;;;;;;16.42;100.00;97396.78;5013053;28;20050;-95